Time;durP1;ratioP1;P1;durP2;ratioP2;P2;SDS_P1;SDS_P2;PMS_P1;PMS_P2;Temp;Humidity;BMP_temperature;BMP_pressure;BME280_temperature;BME280_humidity;BME280_pressure;Samples;Min_cycle;Max_cycle;Signal;HPM_P1;HPM_P2
2022/08/08 00:01:57;;;;;;;1.70;1.23;;;27.30;1.00;;;;;;5098876;28;20111;-46
2022/08/08 00:04:34;;;;;;;1.60;1.50;;;27.30;1.00;;;;;;5108423;28;20109;-45
2022/08/08 00:07:06;;;;;;;2.17;1.10;;;27.30;1.00;;;;;;5101325;28;20400;-44
2022/08/08 00:09:48;;;;;;;1.55;1.38;;;27.30;1.00;;;;;;5114589;28;20031;-46
2022/08/08 00:12:19;;;;;;;1.50;1.40;;;27.20;1.00;;;;;;5109002;28;20040;-44
2022/08/08 00:15:07;;;;;;;1.30;1.20;;;27.20;1.00;;;;;;5109473;28;20075;-44
2022/08/08 00:17:53;;;;;;;1.10;1.05;;;27.10;1.00;;;;;;5113619;28;20426;-46
2022/08/08 00:20:38;;;;;;;1.58;1.42;;;27.20;1.00;;;;;;5113514;28;20424;-44
2022/08/08 00:23:10;;;;;;;2.50;1.52;;;27.20;1.00;;;;;;5113883;28;20040;-44
2022/08/08 00:25:40;;;;;;;1.92;1.40;;;27.30;1.00;;;;;;5100413;28;20050;-46
2022/08/08 00:28:11;;;;;;;3.65;1.33;;;27.20;1.00;;;;;;5113332;28;20026;-45
2022/08/08 00:30:42;;;;;;;3.55;1.33;;;27.20;1.00;;;;;;5114138;28;20028;-44
2022/08/08 00:33:16;;;;;;;2.53;1.52;;;27.20;1.00;;;;;;5113680;28;20023;-45
2022/08/08 00:36:00;;;;;;;1.85;1.40;;;27.20;1.00;;;;;;5114114;28;20028;-45
2022/08/08 00:38:30;;;;;;;1.45;1.35;;;27.20;1.00;;;;;;5112791;28;20051;-44
2022/08/08 00:41:13;;;;;;;1.77;1.40;;;27.20;1.00;;;;;;5099738;28;20032;-44
2022/08/08 00:43:44;;;;;;;2.35;1.30;;;27.20;1.00;;;;;;5112745;28;20134;-44
2022/08/08 00:46:16;;;;;;;4.35;1.65;;;27.20;1.00;;;;;;5114204;28;20028;-45
2022/08/08 00:49:02;;;;;;;5.18;2.10;;;27.10;1.00;;;;;;5113441;28;20039;-44
2022/08/08 00:52:01;;;;;;;3.08;1.70;;;27.10;1.00;;;;;;5108608;28;20550;-45
2022/08/08 00:54:42;;;;;;;2.65;1.20;;;27.10;1.00;;;;;;5112312;28;20474;-46
2022/08/08 00:57:29;;;;;;;1.30;1.20;;;27.00;1.00;;;;;;5112933;28;20031;-47
2022/08/08 01:00:27;;;;;;;2.58;1.50;;;27.10;1.00;;;;;;5101795;28;20035;-45
2022/08/08 01:03:07;;;;;;;1.50;1.40;;;27.10;1.00;;;;;;5057847;28;20047;-44
2022/08/08 01:06:00;;;;;;;1.77;1.55;;;27.00;1.00;;;;;;5099863;28;20032;-45
2022/08/08 01:08:40;;;;;;;1.60;1.50;;;27.00;1.00;;;;;;5098603;28;20036;-45
2022/08/08 01:11:21;;;;;;;2.00;1.50;;;27.00;1.00;;;;;;5110592;28;20063;-46
2022/08/08 01:14:08;;;;;;;1.50;1.40;;;27.00;1.00;;;;;;5109101;28;20039;-46
2022/08/08 01:17:08;;;;;;;1.50;1.40;;;27.00;1.00;;;;;;5112484;28;20102;-45
2022/08/08 01:20:13;;;;;;;1.85;1.35;;;27.00;1.00;;;;;;5112115;28;20100;-46
2022/08/08 01:23:03;;;;;;;1.63;1.50;;;27.00;1.00;;;;;;5113155;28;20027;-45
2022/08/08 01:26:02;;;;;;;1.45;1.20;;;27.00;1.00;;;;;;5102094;28;20035;-44
2022/08/08 01:28:53;;;;;;;2.47;1.33;;;27.00;1.00;;;;;;5112476;28;20034;-48
2022/08/08 01:31:30;;;;;;;2.22;1.50;;;27.00;1.00;;;;;;5112295;28;20023;-47
2022/08/08 01:34:10;;;;;;;2.03;1.75;;;27.00;1.00;;;;;;5112347;28;20038;-44
2022/08/08 01:37:30;;;;;;;1.90;1.67;;;27.00;1.00;;;;;;5113440;28;20031;-45
2022/08/08 01:40:52;;;;;;;2.75;1.52;;;27.00;1.00;;;;;;5032842;28;20041;-45
2022/08/08 01:44:02;;;;;;;1.52;1.42;;;27.00;1.00;;;;;;5012801;28;20064;-44
2022/08/08 01:46:45;;;;;;;2.00;1.63;;;26.90;1.00;;;;;;5020845;28;20030;-46
2022/08/08 01:49:17;;;;;;;2.97;1.42;;;26.90;1.00;;;;;;5110002;28;20015;-45
2022/08/08 01:51:55;;;;;;;1.55;1.45;;;26.90;1.00;;;;;;5112781;28;20065;-44
2022/08/08 01:54:58;;;;;;;2.17;1.27;;;27.00;1.00;;;;;;5111614;28;20449;-44
2022/08/08 01:57:45;;;;;;;2.50;1.65;;;26.90;1.00;;;;;;5107562;28;20059;-45
2022/08/08 02:00:21;;;;;;;3.28;1.60;;;26.90;1.00;;;;;;5112240;28;20393;-44
2022/08/08 02:03:20;;;;;;;2.05;1.58;;;26.90;1.00;;;;;;5111542;28;20018;-44
2022/08/08 02:06:01;;;;;;;1.48;1.38;;;26.90;1.00;;;;;;5103451;28;20389;-45
2022/08/08 02:08:53;;;;;;;1.83;1.73;;;26.80;1.00;;;;;;5097234;28;20373;-45
2022/08/08 02:11:33;;;;;;;1.70;1.48;;;26.80;1.00;;;;;;5111126;28;20481;-45
2022/08/08 02:14:17;;;;;;;1.42;1.33;;;26.80;1.00;;;;;;5093931;28;20046;-44
2022/08/08 02:17:10;;;;;;;1.98;1.40;;;26.80;1.00;;;;;;5095622;28;20067;-44
2022/08/08 02:19:43;;;;;;;3.25;1.45;;;26.70;1.00;;;;;;5104584;28;20465;-46
2022/08/08 02:22:30;;;;;;;1.77;1.65;;;26.60;1.00;;;;;;5098571;28;20553;-44
2022/08/08 02:25:19;;;;;;;1.70;1.60;;;26.70;1.00;;;;;;5111625;28;20110;-44
2022/08/08 02:28:04;;;;;;;1.60;1.50;;;26.70;1.00;;;;;;5111109;28;20416;-45
2022/08/08 02:30:49;;;;;;;1.50;1.40;;;26.70;1.00;;;;;;5097230;28;20024;-45
2022/08/08 02:33:36;;;;;;;3.65;1.75;;;26.70;1.00;;;;;;5092017;28;20020;-44
2022/08/08 02:36:06;;;;;;;1.65;1.55;;;26.60;1.00;;;;;;5097849;28;20043;-45
2022/08/08 02:38:35;;;;;;;1.90;1.70;;;26.70;1.00;;;;;;5096964;28;20061;-45
2022/08/08 02:41:24;;;;;;;4.10;1.80;;;26.70;1.00;;;;;;5107479;28;20028;-44
2022/08/08 02:44:10;;;;;;;1.92;1.52;;;26.70;1.00;;;;;;5093579;28;20054;-44
2022/08/08 02:46:48;;;;;;;1.88;1.60;;;26.60;1.00;;;;;;5100148;28;20016;-44
2022/08/08 02:49:29;;;;;;;1.75;1.20;;;26.60;1.00;;;;;;5110869;28;20023;-45
2022/08/08 02:52:42;;;;;;;2.15;1.60;;;26.50;1.00;;;;;;5112280;28;20371;-44
2022/08/08 02:55:30;;;;;;;2.72;1.65;;;26.50;1.00;;;;;;4989331;28;20034;-44
2022/08/08 02:58:33;;;;;;;3.38;1.40;;;26.50;1.00;;;;;;4978649;28;20380;-47
2022/08/08 03:01:17;;;;;;;2.65;1.90;;;26.40;1.00;;;;;;5092240;28;20051;-45
2022/08/08 03:04:28;;;;;;;2.85;1.60;;;26.40;1.00;;;;;;5111161;28;20375;-45
2022/08/08 03:07:15;;;;;;;1.95;1.75;;;26.40;1.00;;;;;;5098812;28;20035;-45
2022/08/08 03:09:59;;;;;;;2.30;1.70;;;26.50;1.00;;;;;;5111097;28;20028;-46
2022/08/08 03:12:53;;;;;;;2.28;1.50;;;26.40;1.00;;;;;;5111027;28;20031;-46
2022/08/08 03:16:07;;;;;;;1.60;1.50;;;26.40;1.00;;;;;;5107325;28;20538;-45
2022/08/08 03:18:52;;;;;;;3.05;1.60;;;26.40;1.00;;;;;;5110240;28;20039;-45
2022/08/08 03:21:18;;;;;;;1.42;1.33;;;26.30;1.00;;;;;;5099683;28;20477;-46
2022/08/08 03:23:44;;;;;;;1.60;1.40;;;26.40;1.00;;;;;;5114991;28;20023;-46
2022/08/08 03:26:10;;;;;;;1.90;1.75;;;26.40;1.00;;;;;;5115005;28;20035;-45
2022/08/08 03:28:48;;;;;;;2.72;1.60;;;26.40;1.00;;;;;;5114654;28;20057;-45
2022/08/08 03:34:06;;;;;;;2.78;1.52;;;26.20;1.00;;;;;;5101607;28;20092;-46
2022/08/08 03:36:31;;;;;;;2.08;1.90;;;26.10;1.00;;;;;;5115443;28;20024;-46
2022/08/08 03:38:57;;;;;;;1.95;1.85;;;26.20;1.00;;;;;;5114539;28;20456;-45
2022/08/08 03:41:33;;;;;;;3.20;1.98;;;26.20;1.00;;;;;;5115312;28;20374;-46
2022/08/08 03:43:59;;;;;;;1.90;1.70;;;26.10;1.00;;;;;;5114309;28;20075;-45
2022/08/08 03:46:24;;;;;;;1.70;1.60;;;26.00;1.00;;;;;;5115243;28;20074;-45
2022/08/08 03:49:01;;;;;;;1.80;1.70;;;26.10;1.00;;;;;;5113978;28;20031;-47
2022/08/08 03:51:28;;;;;;;1.80;1.70;;;25.90;1.00;;;;;;5115308;28;20022;-45
2022/08/08 03:53:54;;;;;;;1.80;1.60;;;25.90;1.00;;;;;;5114344;28;20064;-45
2022/08/08 03:56:21;;;;;;;1.83;1.73;;;25.80;1.00;;;;;;5114519;28;20050;-45
2022/08/08 03:58:49;;;;;;;3.30;2.13;;;25.70;1.00;;;;;;5114562;28;20377;-45
2022/08/08 04:01:15;;;;;;;1.75;1.65;;;25.80;1.00;;;;;;5114792;28;20035;-45
2022/08/08 04:03:45;;;;;;;2.60;1.90;;;25.80;1.00;;;;;;5114473;28;20061;-47
2022/08/08 04:06:11;;;;;;;1.48;1.40;;;25.60;1.00;;;;;;5112793;28;20034;-45
2022/08/08 04:08:37;;;;;;;1.50;1.38;;;25.70;1.00;;;;;;5114941;28;20019;-45
2022/08/08 04:11:05;;;;;;;3.78;1.73;;;25.90;1.00;;;;;;5108464;28;20586;-45
2022/08/08 04:13:30;;;;;;;1.90;1.80;;;25.90;1.00;;;;;;5114726;28;20022;-45
2022/08/08 04:15:56;;;;;;;1.80;1.70;;;25.80;1.00;;;;;;5113579;28;20031;-44
2022/08/08 04:18:22;;;;;;;2.10;1.83;;;25.80;1.00;;;;;;5114664;28;20059;-45
2022/08/08 04:20:48;;;;;;;1.80;1.70;;;25.80;1.00;;;;;;5113473;28;20075;-45
2022/08/08 04:23:13;;;;;;;2.30;1.90;;;25.50;1.00;;;;;;5114311;28;20038;-45
2022/08/08 04:25:39;;;;;;;2.65;1.88;;;25.50;1.00;;;;;;5095013;28;20379;-45
2022/08/08 04:28:05;;;;;;;2.75;1.88;;;25.70;1.00;;;;;;5113753;28;20121;-47
2022/08/08 04:30:31;;;;;;;1.80;1.70;;;25.80;1.00;;;;;;5113167;28;20062;-45
2022/08/08 04:32:57;;;;;;;1.88;1.77;;;25.80;1.00;;;;;;5114221;28;20016;-44
2022/08/08 04:35:23;;;;;;;3.28;1.88;;;25.80;1.00;;;;;;5113547;28;20070;-46
2022/08/08 04:37:50;;;;;;;1.60;1.50;;;25.60;1.00;;;;;;5114435;28;20045;-44
2022/08/08 04:40:15;;;;;;;5.03;1.90;;;25.70;1.00;;;;;;5113211;28;20123;-45
2022/08/08 04:42:41;;;;;;;3.30;2.00;;;25.80;1.00;;;;;;5095668;28;20070;-45
2022/08/08 04:45:07;;;;;;;3.35;1.83;;;25.70;1.00;;;;;;5113180;28;20055;-44
2022/08/08 04:47:33;;;;;;;2.20;2.00;;;25.60;1.00;;;;;;5095515;28;20377;-46
2022/08/08 04:49:58;;;;;;;3.97;1.80;;;25.60;1.00;;;;;;5113120;28;20032;-45
2022/08/08 04:52:24;;;;;;;3.00;1.70;;;25.60;1.00;;;;;;5113876;28;20106;-44
2022/08/08 04:54:50;;;;;;;3.92;2.03;;;25.40;1.00;;;;;;5112503;28;20027;-45
2022/08/08 04:57:15;;;;;;;2.30;1.92;;;25.50;1.00;;;;;;5113797;28;20090;-45
2022/08/08 04:59:42;;;;;;;1.77;1.67;;;25.60;1.00;;;;;;5113059;28;20169;-49
2022/08/08 05:02:08;;;;;;;2.00;1.90;;;25.50;1.00;;;;;;5092068;28;20024;-45
2022/08/08 05:04:34;;;;;;;2.25;1.48;;;25.50;1.00;;;;;;5111477;28;20024;-45
2022/08/08 05:06:59;;;;;;;2.30;1.80;;;25.60;1.00;;;;;;5095287;28;20381;-45
2022/08/08 05:09:25;;;;;;;3.95;2.65;;;25.40;1.00;;;;;;5112661;28;20081;-44
2022/08/08 05:11:51;;;;;;;3.85;1.90;;;25.60;1.00;;;;;;5112921;28;20470;-45
2022/08/08 05:14:16;;;;;;;3.30;1.90;;;25.70;1.00;;;;;;5112674;28;20020;-45
2022/08/08 05:16:42;;;;;;;4.85;2.00;;;25.70;1.00;;;;;;5113410;28;20016;-46
2022/08/08 05:19:11;;;;;;;2.42;1.60;;;25.70;1.00;;;;;;5108290;28;20039;-47
2022/08/08 05:21:40;;;;;;;4.13;1.80;;;25.70;1.00;;;;;;5110712;28;20028;-46
2022/08/08 05:24:07;;;;;;;3.22;1.75;;;25.70;1.00;;;;;;5100363;28;20024;-46
2022/08/08 05:26:34;;;;;;;2.90;1.80;;;25.80;1.00;;;;;;5113292;28;20015;-46
2022/08/08 05:29:02;;;;;;;2.53;1.60;;;25.80;1.00;;;;;;5112639;28;20023;-48
2022/08/08 05:31:29;;;;;;;1.70;1.50;;;25.80;1.00;;;;;;5108947;28;20126;-45
2022/08/08 05:33:54;;;;;;;1.73;1.50;;;25.80;1.00;;;;;;5113156;28;20493;-45
2022/08/08 05:36:24;;;;;;;6.45;2.17;;;25.70;1.00;;;;;;5112357;28;20032;-46
2022/08/08 05:38:51;;;;;;;3.45;1.95;;;25.80;1.00;;;;;;5112081;28;20028;-48
2022/08/08 05:41:23;;;;;;;2.75;1.88;;;25.70;1.00;;;;;;5111607;28;20124;-46
2022/08/08 05:43:48;;;;;;;2.20;2.00;;;25.80;1.00;;;;;;5111196;28;20345;-48
2022/08/08 05:46:15;;;;;;;2.53;1.95;;;25.80;1.00;;;;;;5107116;28;20122;-46
2022/08/08 05:48:42;;;;;;;1.58;1.48;;;25.60;1.00;;;;;;5091875;28;20020;-46
2022/08/08 05:51:08;;;;;;;2.45;1.90;;;25.60;1.00;;;;;;5096501;28;20090;-45
2022/08/08 05:53:33;;;;;;;2.25;1.83;;;25.60;1.00;;;;;;5092498;28;20381;-44
2022/08/08 05:56:00;;;;;;;2.00;1.88;;;25.70;1.00;;;;;;5111966;28;20035;-44
2022/08/08 05:58:30;;;;;;;2.60;2.15;;;25.80;1.00;;;;;;5112566;28;20015;-46
2022/08/08 06:00:58;;;;;;;2.03;1.75;;;25.80;1.00;;;;;;5111507;28;20518;-45
2022/08/08 06:03:24;;;;;;;2.13;1.90;;;25.80;1.00;;;;;;5112470;28;20098;-45
2022/08/08 06:06:08;;;;;;;2.10;1.90;;;25.80;1.00;;;;;;5111601;28;20031;-46
2022/08/08 06:08:36;;;;;;;3.22;2.30;;;25.90;1.00;;;;;;5074704;28;20016;-46
2022/08/08 06:11:03;;;;;;;3.42;2.10;;;25.90;1.00;;;;;;5106857;28;20138;-45
2022/08/08 06:13:30;;;;;;;3.55;2.25;;;25.80;1.00;;;;;;5112289;28;20018;-46
2022/08/08 06:15:56;;;;;;;2.97;2.13;;;25.90;1.00;;;;;;5111492;28;20178;-45
2022/08/08 06:18:28;;;;;;;1.80;1.70;;;26.00;1.00;;;;;;5112347;28;20020;-46
2022/08/08 06:20:56;;;;;;;2.85;2.28;;;26.10;1.00;;;;;;5108350;28;20042;-45
2022/08/08 06:23:22;;;;;;;2.30;1.98;;;26.20;1.00;;;;;;5112136;28;20019;-46
2022/08/08 06:26:01;;;;;;;3.25;2.00;;;26.20;1.00;;;;;;5111560;28;20065;-45
2022/08/08 06:28:30;;;;;;;2.13;1.85;;;26.20;1.00;;;;;;5099664;28;20015;-46
2022/08/08 06:31:02;;;;;;;2.10;1.77;;;26.10;1.00;;;;;;5111412;28;20028;-43
2022/08/08 06:33:43;;;;;;;3.97;2.00;;;26.20;1.00;;;;;;5098660;28;20438;-43
2022/08/08 06:36:10;;;;;;;2.17;1.98;;;26.30;1.00;;;;;;5111370;28;20027;-47
2022/08/08 06:38:39;;;;;;;2.35;1.70;;;26.30;1.00;;;;;;5112166;28;20111;-45
2022/08/08 06:41:11;;;;;;;3.63;1.98;;;26.30;1.00;;;;;;5110998;28;20074;-44
2022/08/08 06:43:42;;;;;;;2.70;1.88;;;26.30;1.00;;;;;;5098109;28;20058;-44
2022/08/08 06:46:09;;;;;;;2.25;2.15;;;26.30;1.00;;;;;;5110305;28;20112;-45
2022/08/08 06:48:35;;;;;;;1.95;1.80;;;26.30;1.00;;;;;;5111340;28;20023;-46
2022/08/08 06:51:03;;;;;;;2.90;1.80;;;26.30;1.00;;;;;;5111073;28;20053;-45
2022/08/08 06:53:29;;;;;;;3.60;2.13;;;26.30;1.00;;;;;;5115515;28;20046;-44
2022/08/08 06:55:55;;;;;;;2.67;2.20;;;26.40;1.00;;;;;;5115476;28;20095;-46
2022/08/08 06:58:21;;;;;;;2.50;2.30;;;26.40;1.00;;;;;;5116187;28;20461;-45
2022/08/08 07:00:49;;;;;;;2.53;2.05;;;26.30;1.00;;;;;;5115462;28;20043;-46
2022/08/08 07:03:29;;;;;;;2.47;2.25;;;26.30;1.00;;;;;;5115971;28;20042;-46
2022/08/08 07:05:56;;;;;;;2.72;2.53;;;26.40;1.00;;;;;;5115330;28;20110;-44
2022/08/08 07:08:28;;;;;;;2.88;2.28;;;26.40;1.00;;;;;;5116265;28;20333;-44
2022/08/08 07:10:58;;;;;;;7.65;2.60;;;26.40;1.00;;;;;;5108845;28;20103;-47
2022/08/08 07:13:31;;;;;;;1.85;1.70;;;26.50;1.00;;;;;;5114282;28;20023;-45
2022/08/08 07:16:04;;;;;;;3.80;1.85;;;26.60;1.00;;;;;;5096686;28;20027;-45
2022/08/08 07:18:35;;;;;;;2.50;2.10;;;26.60;1.00;;;;;;5113716;28;20062;-44
2022/08/08 07:21:06;;;;;;;3.03;2.30;;;26.60;1.00;;;;;;5114523;28;20047;-44
2022/08/08 07:23:43;;;;;;;2.80;2.05;;;26.70;1.00;;;;;;5115399;28;20048;-45
2022/08/08 07:26:10;;;;;;;2.42;2.22;;;26.80;1.00;;;;;;5114324;28;20037;-44
2022/08/08 07:28:36;;;;;;;4.03;2.70;;;26.90;1.00;;;;;;5115458;28;20016;-47
2022/08/08 07:31:05;;;;;;;6.80;3.20;;;27.00;1.00;;;;;;5114739;28;20108;-47
2022/08/08 07:33:31;;;;;;;6.10;3.97;;;27.00;1.00;;;;;;5115308;28;20076;-44
2022/08/08 07:35:59;;;;;;;11.30;3.38;;;26.90;1.00;;;;;;5115003;28;20036;-46
2022/08/08 07:38:27;;;;;;;10.68;3.28;;;27.00;1.00;;;;;;5115339;28;20016;-45
2022/08/08 07:40:57;;;;;;;4.18;2.85;;;27.00;1.00;;;;;;5114432;28;20130;-45
2022/08/08 07:43:23;;;;;;;5.68;2.80;;;27.00;1.00;;;;;;5114958;28;20035;-45
2022/08/08 07:45:49;;;;;;;5.00;3.10;;;27.10;1.00;;;;;;5114170;28;20089;-47
2022/08/08 07:48:14;;;;;;;7.93;2.97;;;27.10;1.00;;;;;;5114392;28;20027;-45
2022/08/08 07:50:43;;;;;;;7.95;2.92;;;27.10;1.00;;;;;;5114450;28;20051;-45
2022/08/08 07:53:33;;;;;;;10.55;3.05;;;27.00;1.00;;;;;;5114873;28;20118;-45
2022/08/08 07:56:01;;;;;;;9.98;3.17;;;27.10;1.00;;;;;;5076640;28;20044;-45
2022/08/08 07:58:42;;;;;;;5.07;2.58;;;27.20;1.00;;;;;;5088417;28;20381;-45
2022/08/08 08:01:14;;;;;;;7.35;3.22;;;27.30;1.00;;;;;;5100527;28;20119;-45
2022/08/08 08:03:49;;;;;;;8.50;3.33;;;27.40;1.00;;;;;;5115155;28;20028;-44
2022/08/08 08:06:18;;;;;;;9.18;3.67;;;27.40;1.00;;;;;;5113897;28;20042;-46
2022/08/08 08:09:06;;;;;;;6.30;3.22;;;27.50;1.00;;;;;;5114693;28;20469;-46
2022/08/08 08:11:34;;;;;;;4.05;2.75;;;27.60;1.00;;;;;;5113616;28;20047;-46
2022/08/08 08:14:04;;;;;;;4.18;3.20;;;27.50;1.00;;;;;;5114733;28;20077;-50
2022/08/08 08:16:33;;;;;;;5.47;3.08;;;27.70;1.00;;;;;;5113671;28;20504;-48
2022/08/08 08:19:10;;;;;;;5.90;3.17;;;27.70;1.00;;;;;;5114826;28;20031;-47
2022/08/08 08:21:38;;;;;;;9.32;3.42;;;27.80;1.00;;;;;;5113735;28;20043;-45
2022/08/08 08:24:04;;;;;;;5.30;2.70;;;27.80;1.00;;;;;;5113756;28;20027;-45
2022/08/08 08:26:30;;;;;;;9.30;3.25;;;27.90;1.00;;;;;;5113481;28;20477;-46
2022/08/08 08:28:55;;;;;;;5.53;2.97;;;28.00;1.00;;;;;;5114361;28;20028;-45
2022/08/08 08:31:21;;;;;;;6.80;2.80;;;28.00;1.00;;;;;;5113582;28;20016;-45
2022/08/08 08:33:46;;;;;;;4.85;3.20;;;28.10;1.00;;;;;;5114164;28;20412;-45
2022/08/08 08:36:12;;;;;;;5.70;2.90;;;28.10;1.00;;;;;;5113638;28;20493;-49
2022/08/08 08:38:39;;;;;;;6.70;3.50;;;28.10;1.00;;;;;;5114150;28;20027;-45
2022/08/08 08:41:06;;;;;;;5.82;3.65;;;28.10;1.00;;;;;;5113130;28;20031;-46
2022/08/08 08:43:36;;;;;;;4.03;2.97;;;28.10;1.00;;;;;;5095511;28;20425;-46
2022/08/08 08:46:08;;;;;;;5.60;3.50;;;28.00;1.00;;;;;;5094929;28;20056;-45
2022/08/08 08:48:34;;;;;;;3.28;2.97;;;28.10;1.00;;;;;;5114158;28;20012;-46
2022/08/08 08:51:01;;;;;;;6.78;3.25;;;28.10;1.00;;;;;;5104384;28;20046;-45
2022/08/08 08:53:30;;;;;;;6.55;3.40;;;28.10;1.00;;;;;;5113057;28;20049;-45
2022/08/08 08:55:56;;;;;;;8.90;3.45;;;28.10;1.00;;;;;;5113032;28;20449;-45
2022/08/08 08:58:34;;;;;;;3.78;2.97;;;28.20;1.00;;;;;;5113801;28;20031;-44
2022/08/08 09:01:02;;;;;;;7.95;2.83;;;28.30;1.00;;;;;;5106068;28;20096;-49
2022/08/08 09:03:29;;;;;;;5.55;3.20;;;28.20;1.00;;;;;;5093707;28;20025;-45
2022/08/08 09:05:56;;;;;;;5.03;2.92;;;28.20;1.00;;;;;;5083175;28;20028;-47
2022/08/08 09:08:23;;;;;;;3.67;3.22;;;28.20;1.00;;;;;;5113533;28;20453;-47
2022/08/08 09:10:49;;;;;;;6.50;3.33;;;28.30;1.00;;;;;;5108727;28;20027;-45
2022/08/08 09:13:17;;;;;;;3.30;2.83;;;28.30;1.00;;;;;;5113189;28;20110;-44
2022/08/08 09:15:43;;;;;;;3.45;3.15;;;28.40;1.00;;;;;;5109719;28;20453;-44
2022/08/08 09:18:09;;;;;;;3.50;3.13;;;28.50;1.00;;;;;;5109398;28;20028;-45
2022/08/08 09:20:36;;;;;;;5.60;3.03;;;28.50;1.00;;;;;;5101718;28;20040;-47
2022/08/08 09:23:03;;;;;;;4.13;3.58;;;28.60;1.00;;;;;;5108887;28;20109;-44
2022/08/08 09:25:30;;;;;;;3.13;2.80;;;28.60;1.00;;;;;;5113308;28;20481;-47
2022/08/08 09:27:56;;;;;;;4.95;3.25;;;28.60;1.00;;;;;;5112941;28;20500;-46
2022/08/08 09:30:24;;;;;;;3.63;2.90;;;28.50;1.00;;;;;;5113268;28;20030;-45
2022/08/08 09:32:53;;;;;;;5.15;3.83;;;28.60;1.00;;;;;;5112267;28;20103;-46
2022/08/08 09:35:24;;;;;;;3.45;3.03;;;28.60;1.00;;;;;;5113093;28;20019;-49
2022/08/08 09:37:52;;;;;;;3.38;3.08;;;28.60;1.00;;;;;;5112457;28;20024;-46
2022/08/08 09:40:20;;;;;;;3.58;2.67;;;28.70;1.00;;;;;;5099545;28;20032;-45
2022/08/08 09:42:49;;;;;;;3.03;2.83;;;28.70;1.00;;;;;;5112062;28;20039;-45
2022/08/08 09:45:21;;;;;;;3.47;3.20;;;28.80;1.00;;;;;;5102035;28;20447;-46
2022/08/08 09:47:48;;;;;;;4.00;3.65;;;28.80;1.00;;;;;;5106928;28;20055;-47
2022/08/08 09:50:17;;;;;;;3.58;3.28;;;28.80;1.00;;;;;;5094548;28;20450;-47
2022/08/08 09:52:51;;;;;;;5.38;3.25;;;28.80;1.00;;;;;;5094171;28;20042;-49
2022/08/08 09:55:18;;;;;;;6.72;2.97;;;28.90;1.00;;;;;;5112768;28;20062;-46
2022/08/08 09:57:48;;;;;;;3.53;3.22;;;28.90;1.00;;;;;;5099828;28;20121;-46
2022/08/08 10:00:18;;;;;;;3.95;3.60;;;28.90;1.00;;;;;;5108969;28;20079;-47
2022/08/08 10:02:46;;;;;;;5.68;3.13;;;28.80;1.00;;;;;;5111773;28;20443;-47
2022/08/08 10:05:15;;;;;;;3.85;3.35;;;29.10;1.00;;;;;;5112590;28;20031;-48
2022/08/08 10:07:50;;;;;;;3.58;3.28;;;29.10;1.00;;;;;;5111831;28;20032;-49
2022/08/08 10:10:32;;;;;;;3.28;2.60;;;29.00;1.00;;;;;;5112618;28;20032;-50
2022/08/08 10:13:14;;;;;;;4.15;2.83;;;29.10;1.00;;;;;;5104079;28;20024;-51
2022/08/08 10:15:42;;;;;;;3.95;3.33;;;29.30;1.00;;;;;;5112449;28;20106;-45
2022/08/08 10:18:08;;;;;;;4.30;2.90;;;29.40;1.00;;;;;;5111524;28;20027;-44
2022/08/08 10:20:44;;;;;;;4.95;2.97;;;29.40;1.00;;;;;;5112375;28;20040;-45
2022/08/08 10:23:13;;;;;;;3.17;2.88;;;29.50;1.00;;;;;;5108876;28;20016;-46
2022/08/08 10:25:41;;;;;;;3.38;3.08;;;29.60;1.00;;;;;;5112275;28;20036;-45
2022/08/08 10:28:15;;;;;;;4.50;3.08;;;29.50;1.00;;;;;;5106743;28;20232;-46
2022/08/08 10:33:55;;;;;;;5.20;3.63;;;29.60;1.00;;;;;;5112217;28;20105;-46
2022/08/08 10:36:26;;;;;;;3.20;2.95;;;29.80;1.00;;;;;;5112516;28;20384;-45
2022/08/08 10:38:57;;;;;;;3.78;3.47;;;29.80;1.00;;;;;;5106700;28;20645;-45
2022/08/08 10:41:25;;;;;;;3.42;3.22;;;29.60;1.00;;;;;;5112068;28;20083;-46
2022/08/08 10:43:52;;;;;;;5.10;3.20;;;29.70;1.00;;;;;;5111303;28;20039;-46
2022/08/08 10:46:27;;;;;;;3.92;2.72;;;29.80;1.00;;;;;;5112109;28;20354;-46
2022/08/08 10:48:54;;;;;;;3.72;3.17;;;29.90;1.00;;;;;;5097677;28;20042;-45
2022/08/08 10:51:24;;;;;;;3.72;2.90;;;30.00;1.00;;;;;;5111178;28;20055;-48
2022/08/08 10:53:51;;;;;;;4.07;3.67;;;30.00;1.00;;;;;;5111145;28;20481;-46
2022/08/08 10:56:17;;;;;;;4.20;3.08;;;30.10;1.00;;;;;;5112000;28;20023;-50
2022/08/08 10:58:43;;;;;;;3.13;2.92;;;30.20;1.00;;;;;;5111316;28;20303;-46
2022/08/08 11:01:10;;;;;;;4.07;3.00;;;30.30;1.00;;;;;;5111781;28;20038;-46
2022/08/08 11:03:43;;;;;;;3.25;3.03;;;30.30;1.00;;;;;;5111046;28;20020;-46
2022/08/08 11:06:09;;;;;;;;;;;30.50;1.00;;;;;;5112475;28;20038;-48
2022/08/08 11:08:36;;;;;;;3.03;2.78;;;30.50;1.00;;;;;;5108511;28;19911;-46
2022/08/08 11:11:07;;;;;;;3.40;3.20;;;30.60;1.00;;;;;;5111181;28;20028;-46
2022/08/08 11:13:40;;;;;;;4.15;3.03;;;30.70;1.00;;;;;;5111045;28;20473;-45
2022/08/08 11:16:07;;;;;;;4.70;3.13;;;30.70;1.00;;;;;;5111555;28;20027;-46
2022/08/08 11:18:34;;;;;;;4.05;3.45;;;30.80;1.00;;;;;;5104272;28;20360;-51
2022/08/08 11:21:02;;;;;;;6.25;3.28;;;30.90;1.00;;;;;;5111598;28;20453;-46
2022/08/08 11:23:33;;;;;;;4.75;3.05;;;31.00;1.00;;;;;;5110796;28;20102;-46
2022/08/08 11:26:04;;;;;;;3.17;2.97;;;31.00;1.00;;;;;;5093303;28;20358;-46
2022/08/08 11:28:35;;;;;;;2.83;2.72;;;31.10;1.00;;;;;;5103949;28;20383;-45
2022/08/08 11:31:04;;;;;;;3.85;3.50;;;31.00;1.00;;;;;;5111575;28;20027;-46
2022/08/08 11:33:31;;;;;;;5.22;2.92;;;31.00;1.00;;;;;;5105316;28;20020;-45
2022/08/08 11:35:57;;;;;;;3.40;3.10;;;31.10;1.00;;;;;;5111633;28;20028;-45
2022/08/08 11:38:24;;;;;;;3.08;2.78;;;31.30;1.00;;;;;;5111854;28;20155;-45
2022/08/08 11:40:51;;;;;;;3.22;3.03;;;31.50;1.00;;;;;;5115239;28;20032;-46
2022/08/08 11:43:17;;;;;;;3.72;2.90;;;31.50;1.00;;;;;;5111405;28;20051;-47
2022/08/08 11:45:44;;;;;;;3.65;2.80;;;31.70;1.00;;;;;;5103937;28;20027;-45
2022/08/08 11:48:14;;;;;;;3.85;3.55;;;31.80;1.00;;;;;;5114109;28;20024;-45
2022/08/08 11:50:40;;;;;;;3.17;2.92;;;32.00;1.00;;;;;;5115280;28;20016;-46
2022/08/08 11:53:08;;;;;;;3.78;3.00;;;32.30;1.00;;;;;;5114328;28;20397;-45
2022/08/08 11:55:36;;;;;;;4.00;3.00;;;34.40;1.00;;;;;;5100880;28;20020;-45
2022/08/08 11:58:01;;;;;;;4.78;2.97;;;34.80;1.00;;;;;;5114557;28;20028;-45
2022/08/08 12:00:27;;;;;;;3.08;2.80;;;35.00;1.00;;;;;;5114924;28;20026;-45
2022/08/08 12:02:53;;;;;;;3.72;3.30;;;35.60;1.00;;;;;;5106904;28;20024;-45
2022/08/08 12:05:34;;;;;;;3.13;2.92;;;36.80;1.00;;;;;;5111177;28;20015;-45
2022/08/08 12:08:00;;;;;;;4.25;3.33;;;37.70;1.00;;;;;;5103595;28;20028;-46
2022/08/08 12:10:29;;;;;;;3.85;3.47;;;38.90;1.00;;;;;;5098466;28;20369;-45
2022/08/08 12:13:10;;;;;;;3.50;3.30;;;39.50;1.00;;;;;;5099677;28;20090;-48
2022/08/08 12:15:39;;;;;;;3.78;3.42;;;38.70;1.00;;;;;;5100803;28;20030;-49
2022/08/08 12:18:32;;;;;;;4.18;3.90;;;38.40;1.00;;;;;;5111848;28;20039;-44
2022/08/08 12:20:57;;;;;;;4.22;4.03;;;39.30;1.00;;;;;;5099666;28;20079;-44
2022/08/08 12:23:28;;;;;;;4.38;4.18;;;42.50;1.00;;;;;;5113733;28;20043;-45
2022/08/08 12:25:54;;;;;;;5.00;4.65;;;44.30;1.00;;;;;;5114832;28;20111;-44
2022/08/08 12:28:20;;;;;;;4.93;4.60;;;44.80;1.00;;;;;;5113658;28;20465;-46
2022/08/08 12:30:45;;;;;;;4.93;4.63;;;44.80;1.00;;;;;;5114455;28;20024;-45
2022/08/08 12:33:19;;;;;;;5.13;4.78;;;46.70;1.00;;;;;;5113605;28;20047;-45
2022/08/08 12:35:46;;;;;;;4.60;4.40;;;47.30;99.90;;;;;;5114562;28;20026;-45
2022/08/08 12:38:12;;;;;;;5.55;5.22;;;47.00;1.00;;;;;;5113232;28;20026;-46
2022/08/08 12:40:44;;;;;;;5.22;4.93;;;45.80;1.00;;;;;;5114300;28;20027;-45
2022/08/08 12:43:12;;;;;;;5.27;4.87;;;44.10;1.00;;;;;;5113039;28;20374;-45
2022/08/08 12:45:42;;;;;;;5.28;4.90;;;42.90;1.00;;;;;;5113102;28;20106;-47
2022/08/08 12:48:22;;;;;;;5.55;5.13;;;42.10;1.00;;;;;;5113369;28;20030;-45
2022/08/08 12:50:50;;;;;;;5.55;5.22;;;41.50;1.00;;;;;;5113164;28;20031;-45
2022/08/08 12:53:31;;;;;;;5.43;5.10;;;41.40;1.00;;;;;;5112878;28;20027;-46
2022/08/08 12:56:03;;;;;;;6.32;5.97;;;41.80;1.00;;;;;;5113899;28;20347;-45
2022/08/08 12:58:46;;;;;;;5.78;5.55;;;41.50;1.00;;;;;;5112952;28;20449;-45
2022/08/08 13:01:12;;;;;;;6.18;5.70;;;41.60;1.00;;;;;;5113787;28;20453;-45
2022/08/08 13:03:47;;;;;;;6.00;5.60;;;40.80;1.00;;;;;;5094984;28;20076;-44
2022/08/08 13:06:15;;;;;;;5.90;5.60;;;41.00;1.00;;;;;;5113982;28;20068;-46
2022/08/08 13:08:44;;;;;;;5.80;5.53;;;41.80;1.00;;;;;;5102745;28;20167;-44
2022/08/08 13:11:25;;;;;;;6.38;6.03;;;43.00;1.00;;;;;;5112745;28;20032;-45
2022/08/08 13:14:02;;;;;;;6.43;5.93;;;44.60;1.00;;;;;;5112046;28;20077;-46
2022/08/08 13:16:31;;;;;;;6.15;5.95;;;46.50;99.90;;;;;;5094447;28;20020;-45
2022/08/08 13:18:57;;;;;;;6.50;5.95;;;47.40;99.90;;;;;;5112401;28;20027;-45
2022/08/08 13:21:23;;;;;;;5.80;5.53;;;49.60;99.90;;;;;;5113394;28;20066;-45
2022/08/08 13:23:50;;;;;;;6.55;6.18;;;49.30;99.90;;;;;;5112613;28;20030;-46
2022/08/08 13:26:15;;;;;;;7.07;6.47;;;48.80;99.90;;;;;;5113299;28;20046;-46
2022/08/08 13:28:41;;;;;;;6.15;5.85;;;48.70;99.90;;;;;;5112288;28;20473;-45
2022/08/08 13:31:11;;;;;;;6.38;6.07;;;49.90;99.90;;;;;;5094762;28;20435;-44
2022/08/08 13:33:37;;;;;;;6.20;5.90;;;49.30;99.90;;;;;;5112590;28;20081;-45